TG415 / HS-TKO 7700 Squawk Report (14th of January, 2019)

Aircraft B77W Reg No. HS-TKO Age 6 years old
Model 777 Jet engines 2 First flight 10-05-13
Registered 11-06-13 Rollout N/A Delivered 11-06-13
Construction No. 41524 Line No. 1107 Series 3AL(ER)
ADSHEX 88516F Airline name Thai Airways International Owner BOC Aviation
Airfield based Bangkok-Suvarnabhumi International~ ~HS First tracked 2017-07-21 08:48:00

Flight history for HS-TKO

Route Flight No Date Playback
Suvarnabhumi International (BKK) - Arlanda (ARN) TG960 2019-10-18 04:50:00
Ninoy Aquino Intl (MNL) - Suvarnabhumi International (BKK) TG625 2019-10-17 15:15:00
Suvarnabhumi International (BKK) - Ninoy Aquino Intl (MNL) TG624 2019-10-17 12:38:00
Charles De Gaulle (CDG) - Suvarnabhumi International (BKK) TG931 2019-10-16 22:45:00
Suvarnabhumi International (BKK) - Charles De Gaulle (CDG) TG930 2019-10-16 04:54:00
Kansai (KIX) - Suvarnabhumi International (BKK) TG673 2019-10-15 14:07:00
Suvarnabhumi International (BKK) - Kansai (KIX) TG672 2019-10-15 06:44:00
Copenhagen Airport (CPH) - Suvarnabhumi International (BKK) TG951 2019-10-15 01:44:00
Suvarnabhumi International (BKK) - Copenhagen Airport (CPH) TG950 2019-10-14 05:37:00
???? N/A 2019-10-13 18:48:00
???? N/A 2019-10-13 10:58:00
Charles De Gaulle (CDG) - Suvarnabhumi International (BKK) TG931 2019-10-12 22:19:00
Suvarnabhumi International (BKK) - Charles De Gaulle (CDG) TG930 2019-10-12 05:04:00
Heathrow (LHR) - Suvarnabhumi International (BKK) TG917 2019-10-11 07:32:00
Suvarnabhumi International (BKK) - Heathrow (LHR) TG916 2019-10-10 18:17:00
Copenhagen Airport (CPH) - Suvarnabhumi International (BKK) TG951 2019-10-09 22:16:00
Suvarnabhumi International (BKK) - Copenhagen Airport (CPH) TG950 2019-10-09 06:46:00
Kansai (KIX) - Suvarnabhumi International (BKK) TG673 2019-10-08 14:06:00
Suvarnabhumi International (BKK) - Kansai (KIX) TG672 2019-10-08 06:53:00
Zurich (ZRH) - Suvarnabhumi International (BKK) TG971 2019-10-07 21:54:00
Time Lat Lon Altitude Heading Speed Vertical Rate
2019-01-14 03:54:30 GMT 2.687256 101.735542 725 327 151 -704
2019-01-14 03:54:16 GMT 2.678421 101.741455 925 326 151 -896
2019-01-14 03:54:06 GMT 2.673065 101.745033 1,025 327 150 -768
2019-01-14 03:53:58 GMT 2.668514 101.748123 1,125 327 151 -960
2019-01-14 03:53:48 GMT 2.662136 101.752342 1,275 326 151 -960
2019-01-14 03:53:37 GMT 2.656265 101.756302 1,400 327 155 -768
2019-01-14 03:53:26 GMT 2.648666 101.761421 1,550 327 162 -704
2019-01-14 03:53:11 GMT 2.639191 101.767754 1,750 327 168 -960
2019-01-14 03:53:06 GMT 2.636300 101.769669 1,825 326 169 -960
2019-01-14 03:52:56 GMT 2.629303 101.774414 1,975 327 169 -896
2019-01-14 03:52:44 GMT 2.622008 101.779282 2,125 326 171 -1088
2019-01-14 03:52:34 GMT 2.615258 101.783829 2,300 327 173 -960
2019-01-14 03:52:24 GMT 2.608017 101.788658 2,450 327 173 -1088
2019-01-14 03:52:12 GMT 2.600967 101.793358 2,625 326 172 -832
2019-01-14 03:52:02 GMT 2.593984 101.798088 2,775 327 179 -896
2019-01-14 03:51:52 GMT 2.586070 101.803391 2,950 327 189 -896
2019-01-14 03:51:38 GMT 2.576523 101.809792 3,175 326 200 -1152
2019-01-14 03:51:20 GMT 2.561646 101.819656 3,500 326 203 -1088
2019-01-14 03:51:06 GMT 2.551620 101.826500 3,750 327 201 -1152
2019-01-14 03:50:55 GMT 2.542786 101.832367 3,950 327 201 -1088
2019-01-14 03:50:48 GMT 2.537247 101.836044 4,075 327 201 -1088
2019-01-14 03:50:36 GMT 2.528549 101.841774 4,275 327 202 -1152
2019-01-14 03:50:24 GMT 2.518336 101.848419 4,500 327 201 -1024
2019-01-14 03:50:16 GMT 2.511978 101.852524 4,625 327 201 -1216
2019-01-14 03:50:03 GMT 2.502502 101.858994 4,850 324 201 -1024
2019-01-14 03:49:55 GMT 2.495852 101.864052 5,000 322 201 -1088
2019-01-14 03:49:42 GMT 2.487396 101.871376 5,200 312 205 -1344
2019-01-14 03:49:31 GMT 2.481033 101.879570 5,375 293 213 -1152
2019-01-14 03:49:20 GMT 2.478162 101.891518 5,525 274 222 -960
2019-01-14 03:49:11 GMT 2.478745 101.899124 5,625 257 230 -832
2019-01-14 03:48:59 GMT 2.483143 101.911217 5,775 243 234 -832
2019-01-14 03:48:51 GMT 2.487991 101.919983 5,875 242 238 -768
2019-01-14 03:48:39 GMT 2.493668 101.930450 6,025 242 242 -960
2019-01-14 03:48:29 GMT 2.499436 101.940620 6,150 241 246 -448
2019-01-14 03:48:19 GMT 2.505814 101.951843 6,325 240 246 -1088
2019-01-14 03:48:07 GMT 2.512115 101.962433 6,475 240 244 -832
2019-01-14 03:47:57 GMT 2.518336 101.971970 6,625 231 244 -576
2019-01-14 03:47:46 GMT 2.527863 101.980408 6,750 212 241 -640
2019-01-14 03:47:35 GMT 2.538214 101.985329 6,850 194 241 -768
2019-01-14 03:47:25 GMT 2.548782 101.986969 7,000 180 243 -576
2019-01-14 03:47:15 GMT 2.569199 101.982224 7,225 150 252 -512
2019-01-14 03:47:05 GMT 2.571685 101.980919 7,275 147 254 -512
2019-01-14 03:46:59 GMT 2.577805 101.977051 7,325 146 256 -640
2019-01-14 03:46:54 GMT 2.582253 101.974052 7,375 146 259 -768
2019-01-14 03:46:43 GMT 2.593048 101.966766 7,550 145 260 -1088
2019-01-14 03:46:37 GMT 2.600501 101.961792 7,675 146 261 -1024
2019-01-14 03:46:31 GMT 2.605715 101.958290 7,750 146 261 -704
2019-01-14 03:46:22 GMT 2.614653 101.952271 7,825 145 264 -512
2019-01-14 03:46:09 GMT 2.627975 101.943253 7,925 145 264 -576
2019-01-14 03:45:59 GMT 2.638302 101.936363 8,025 146 266 -320
2019-01-14 03:45:50 GMT 2.646881 101.930687 8,075 145 270 -512
2019-01-14 03:45:39 GMT 2.658645 101.922722 8,150 145 277 -512
2019-01-14 03:45:28 GMT 2.670776 101.914536 8,400 146 286 -576
2019-01-14 03:45:15 GMT 2.686478 101.904060 8,400 146 290 -704
2019-01-14 03:45:04 GMT 2.698261 101.896156 8,525 145 293 -1024
2019-01-14 03:44:57 GMT 2.705521 101.891304 8,625 146 295 -1088
2019-01-14 03:44:52 GMT 2.711109 101.887543 8,700 146 296 -1024
2019-01-14 03:44:46 GMT 2.717533 101.883278 8,800 145 298 -1024
2019-01-14 03:44:41 GMT 2.723352 101.879349 8,875 145 298 -960
2019-01-14 03:44:36 GMT 2.729462 101.875244 8,975 145 297 -896
2019-01-14 03:44:25 GMT 2.742299 101.866608 9,100 145 299 -704
2019-01-14 03:44:14 GMT 2.754181 101.858574 9,200 145 300 -896
2019-01-14 03:44:08 GMT 2.760910 101.854065 9,300 145 301 -896
2019-01-14 03:44:03 GMT 2.767044 101.849922 9,375 146 301 -896
2019-01-14 03:44:00 GMT 2.772046 101.846581 9,425 146 301 -896
2019-01-14 03:43:52 GMT 2.780548 101.840889 9,525 145 301 -896
2019-01-14 03:43:48 GMT 2.785081 101.837860 9,575 146 302 -960
2019-01-14 03:43:42 GMT 2.791505 101.833557 9,675 145 303 -1088
2019-01-14 03:43:36 GMT 2.798630 101.828735 9,750 145 305 -1024
2019-01-14 03:43:31 GMT 2.804540 101.824791 9,850 146 304 -1088
2019-01-14 03:43:26 GMT 2.811336 101.820244 9,950 146 304 -1024
2019-01-14 03:43:21 GMT 2.816503 101.816788 10,025 146 304 -1088
2019-01-14 03:43:16 GMT 2.823579 101.812103 10,125 146 304 -1088
2019-01-14 03:43:10 GMT 2.829352 101.808266 10,200 146 303 -1024
2019-01-14 03:43:05 GMT 2.835916 101.803909 10,300 145 303 -1088
2019-01-14 03:42:59 GMT 2.841797 101.799965 10,375 145 304 -1088
2019-01-14 03:42:55 GMT 2.848112 101.795715 10,475 145 305 -1088
2019-01-14 03:42:48 GMT 2.854909 101.791122 10,575 145 305 -1152
2019-01-14 03:42:44 GMT 2.860794 101.787163 10,675 146 305 -1216
2019-01-14 03:42:38 GMT 2.866966 101.783073 10,775 146 307 -1408
2019-01-14 03:42:33 GMT 2.873245 101.778877 10,900 146 307 -1408
2019-01-14 03:42:27 GMT 2.879517 101.774689 11,000 145 307 -1344
2019-01-14 03:42:23 GMT 2.886239 101.770149 11,125 145 308 -1280
2019-01-14 03:42:16 GMT 2.892883 101.765656 11,250 145 308 -1280
2019-01-14 03:42:11 GMT 2.899041 101.761482 11,350 145 308 -1344
2019-01-14 03:42:06 GMT 2.905106 101.757370 11,450 145 308 -1344
2019-01-14 03:42:00 GMT 2.911563 101.753052 11,575 146 309 -1216
2019-01-14 03:41:55 GMT 2.918243 101.748573 11,675 145 310 -1536
2019-01-14 03:41:51 GMT 2.923760 101.744858 11,800 145 310 -1984
2019-01-14 03:41:45 GMT 2.930191 101.740524 11,975 145 310 -2048
2019-01-14 03:41:40 GMT 2.936646 101.736191 12,125 145 310 -1984
2019-01-14 03:41:35 GMT 2.942381 101.732307 12,275 145 313 -1664
2019-01-14 03:41:29 GMT 2.949371 101.727577 12,425 145 315 -1408
2019-01-14 03:41:23 GMT 2.956146 101.723015 12,525 145 323 -640
2019-01-14 03:41:19 GMT 2.962692 101.718597 12,600 145 322 -576
2019-01-14 03:41:12 GMT 2.969521 101.713982 12,650 145 326 -1152
2019-01-14 03:41:08 GMT 2.975945 101.709625 12,750 145 326 -1536
2019-01-14 03:41:02 GMT 2.982697 101.705048 12,875 145 326 -1472
2019-01-14 03:40:57 GMT 2.989352 101.700531 13,000 145 327 -1472
2019-01-14 03:40:51 GMT 2.995823 101.696175 13,125 145 328 -1472
2019-01-14 03:40:47 GMT 3.002609 101.691597 13,250 146 328 -1536
2019-01-14 03:40:39 GMT 3.011627 101.685593 13,375 146 330 -1472
2019-01-14 03:40:36 GMT 3.016352 101.682442 13,500 145 329 -1472
2019-01-14 03:40:29 GMT 3.023940 101.677284 13,650 145 330 -1472
2019-01-14 03:40:25 GMT 3.030807 101.672646 13,775 146 331 -1600
2019-01-14 03:40:18 GMT 3.038544 101.667572 14,050 147 331 -1664
2019-01-14 03:40:15 GMT 3.043762 101.664314 14,025 149 332 -1536
2019-01-14 03:40:08 GMT 3.051592 101.659714 14,150 151 333 -1152
2019-01-14 03:40:03 GMT 3.058319 101.655937 14,250 151 334 -1152
2019-01-14 03:39:58 GMT 3.065048 101.652351 14,325 152 335 -1152
2019-01-14 03:39:53 GMT 3.073286 101.648209 14,425 154 338 -1152
2019-01-14 03:39:48 GMT 3.079147 101.645462 14,500 155 339 -1088
2019-01-14 03:39:43 GMT 3.088028 101.641411 14,600 155 341 -1088
2019-01-14 03:39:38 GMT 3.103126 101.634567 14,750 155 343 -1088
2019-01-14 03:39:32 GMT 3.103126 101.634567 14,775 155 345 -1152
2019-01-14 03:39:25 GMT 3.112250 101.630493 14,900 155 347 -1152
2019-01-14 03:39:22 GMT 3.118561 101.627632 14,975 155 349 -1216
2019-01-14 03:39:16 GMT 3.126572 101.624001 15,075 155 352 -1152
2019-01-14 03:39:11 GMT 3.135200 101.620125 15,175 155 353 -960
2019-01-14 03:39:05 GMT 3.142685 101.616737 15,250 155 356 -704
2019-01-14 03:39:00 GMT 3.150558 101.613197 15,300 155 359 -704
2019-01-14 03:38:54 GMT 3.158661 101.609566 15,350 155 362 -1152
2019-01-14 03:38:49 GMT 3.168182 101.605286 15,475 155 365 -1216
2019-01-14 03:38:43 GMT 3.176259 101.601654 15,575 155 368 -1216
2019-01-14 03:38:38 GMT 3.183701 101.598259 15,625 155 369 -1216
2019-01-14 03:38:35 GMT 3.188873 101.595932 15,725 155 371 -1216
2019-01-14 03:38:31 GMT 3.198303 101.591644 15,825 155 373 -1152
2019-01-14 03:38:27 GMT 3.200653 101.590576 15,850 155 374 -1152
2019-01-14 03:38:24 GMT 3.206192 101.588066 15,925 155 375 -1152
2019-01-14 03:38:18 GMT 3.217026 101.583130 16,025 155 379 -1152
2019-01-14 03:38:14 GMT 3.222346 101.580727 16,100 155 381 -1216
2019-01-14 03:38:10 GMT 3.229935 101.577263 16,200 155 383 -1216
2019-01-14 03:38:06 GMT 3.234604 101.575165 16,225 155 384 -1216
2019-01-14 03:38:03 GMT 3.239151 101.573105 16,300 155 384 -1216
2019-01-14 03:37:59 GMT 3.247971 101.569115 16,400 155 385 -1216
2019-01-14 03:37:56 GMT 3.250417 101.567986 16,475 155 385 -1216
2019-01-14 03:37:52 GMT 3.257767 101.564690 16,525 155 386 -1216
2019-01-14 03:37:47 GMT 3.268387 101.559898 16,650 155 387 -1216
2019-01-14 03:37:42 GMT 3.273972 101.557381 16,725 155 387 -1216
2019-01-14 03:37:35 GMT 3.286448 101.551743 16,875 155 388 -1280
2019-01-14 03:37:31 GMT 3.292511 101.549004 16,925 155 388 -1280
2019-01-14 03:37:24 GMT 3.303207 101.544167 17,050 155 388 -1280
2019-01-14 03:37:21 GMT 3.308487 101.541786 17,125 155 389 -1280
2019-01-14 03:37:15 GMT 3.320850 101.536163 17,275 155 389 -1280
2019-01-14 03:37:08 GMT 3.329928 101.532089 17,375 155 390 -1280
2019-01-14 03:37:03 GMT 3.337702 101.528587 17,475 155 390 -1216
2019-01-14 03:36:59 GMT 3.344147 101.525635 17,550 155 390 -1216
2019-01-14 03:36:53 GMT 3.355346 101.520493 17,675 155 391 -1216
2019-01-14 03:36:49 GMT 3.361816 101.517532 17,750 155 391 -1216
2019-01-14 03:36:43 GMT 3.373581 101.512230 17,900 155 392 -1280
2019-01-14 03:36:37 GMT 3.380763 101.508987 17,975 155 393 -1280
2019-01-14 03:36:31 GMT 3.390725 101.504486 18,100 155 394 -1280
2019-01-14 03:36:28 GMT 3.395893 101.502167 18,150 155 394 -1280
2019-01-14 03:36:22 GMT 3.408463 101.496544 18,300 155 394 -1280
2019-01-14 03:36:17 GMT 3.414095 101.493973 18,375 155 394 -1280
2019-01-14 03:36:09 GMT 3.428833 101.487320 18,550 155 395 -1280
2019-01-14 03:36:05 GMT 3.433833 101.485069 18,600 155 395 -1280
2019-01-14 03:35:57 GMT 3.448776 101.478294 18,775 155 397 -1280
2019-01-14 03:35:49 GMT 3.462753 101.472008 18,950 155 399 -1280
2019-01-14 03:35:46 GMT 3.466280 101.470390 18,975 155 399 -1280
2019-01-14 03:35:36 GMT 3.484222 101.462280 19,200 155 401 -1280
2019-01-14 03:35:28 GMT 3.499006 101.455612 19,375 155 402 -1280
2019-01-14 03:35:25 GMT 3.501752 101.454384 19,400 155 402 -1280
2019-01-14 03:35:18 GMT 3.516403 101.447708 19,575 155 402 -1280
2019-01-14 03:35:15 GMT 3.519791 101.446175 19,625 155 402 -1280
2019-01-14 03:35:04 GMT 3.538017 101.437859 19,850 155 402 -1344
2019-01-14 03:34:54 GMT 3.555725 101.429878 20,050 155 401 -1280
2019-01-14 03:34:43 GMT 3.573583 101.421753 20,250 155 403 -1344
2019-01-14 03:34:33 GMT 3.591339 101.413773 20,475 155 403 -1280
2019-01-14 03:34:22 GMT 3.609614 101.405510 20,725 155 405 -1280
2019-01-14 03:34:11 GMT 3.627823 101.397293 20,900 155 406 -1344
2019-01-14 03:34:01 GMT 3.645552 101.389320 21,100 155 407 -1344
2019-01-14 03:33:50 GMT 3.664732 101.380653 21,350 155 408 -1280
2019-01-14 03:33:40 GMT 3.682049 101.372787 21,550 155 409 -1280
2019-01-14 03:33:29 GMT 3.700470 101.364471 21,750 155 412 -1280
2019-01-14 03:33:19 GMT 3.718826 101.356171 21,975 155 414 -1344
2019-01-14 03:33:11 GMT 3.734793 101.348969 22,150 155 415 -1344
2019-01-14 03:33:08 GMT 3.737633 101.347694 22,200 155 415 -1344
2019-01-14 03:33:00 GMT 3.753799 101.340355 22,375 155 415 -1344
2019-01-14 03:32:47 GMT 3.774409 101.331169 22,600 156 416 -1344
2019-01-14 03:32:39 GMT 3.791075 101.324249 22,800 158 420 -1600
2019-01-14 03:32:26 GMT 3.812164 101.316338 23,125 160 423 -2240
2019-01-14 03:32:16 GMT 3.832273 101.309570 23,500 163 425 -2240
2019-01-14 03:32:05 GMT 3.852539 101.303535 23,850 163 426 -2176
2019-01-14 03:31:54 GMT 3.873146 101.297546 24,225 163 428 -2240
2019-01-14 03:31:44 GMT 3.896469 101.290771 24,625 163 429 -2176
2019-01-14 03:31:34 GMT 3.914857 101.285378 24,950 163 431 -2240
2019-01-14 03:31:22 GMT 3.935852 101.279266 25,325 163 433 -2240
2019-01-14 03:31:13 GMT 3.952835 101.274300 25,650 163 434 -2240
2019-01-14 03:31:01 GMT 3.978287 101.266899 26,100 163 436 -2304
2019-01-14 03:30:51 GMT 3.998520 101.260986 26,450 163 437 -2240
2019-01-14 03:30:40 GMT 4.017505 101.255493 26,800 163 439 -2304
2019-01-14 03:30:29 GMT 4.040688 101.248718 27,125 163 441 -2304
2019-01-14 03:30:19 GMT 4.060798 101.242897 27,575 163 442 -2304
2019-01-14 03:30:10 GMT 4.077576 101.238037 27,900 163 443 -2304
2019-01-14 03:29:57 GMT 4.103531 101.230446 28,375 163 445 -2304
2019-01-14 03:29:49 GMT 4.119826 101.225708 28,650 163 446 -2368
2019-01-14 03:29:39 GMT 4.140170 101.219833 29,025 163 447 -2368
2019-01-14 03:29:35 GMT 4.146149 101.218109 29,150 163 447 -2368
2019-01-14 03:29:27 GMT 4.160932 101.213867 29,450 163 448 -2368
2019-01-14 03:29:24 GMT 4.168520 101.211639 29,450 163 448 -2368
2019-01-14 03:29:19 GMT 4.178513 101.208710 29,725 163 449 -2176
2019-01-14 03:29:15 GMT 4.188165 101.205910 29,900 163 450 -1920
2019-01-14 03:29:09 GMT 4.198407 101.202927 30,050 163 452 -1600
2019-01-14 03:29:06 GMT 4.214188 101.198380 30,150 163 454 -1408
2019-01-14 03:29:02 GMT 4.214188 101.198380 30,225 163 456 -1664
2019-01-14 03:28:57 GMT 4.221310 101.196297 30,325 163 456 -1664
2019-01-14 03:28:54 GMT 4.226804 101.194687 30,400 163 457 -1664
2019-01-14 03:28:51 GMT 4.234772 101.192413 30,500 163 458 -1664
2019-01-14 03:28:48 GMT 4.242508 101.190132 30,600 163 458 -1664
2019-01-14 03:28:43 GMT 4.253943 101.186829 30,750 163 459 -1664
2019-01-14 03:28:37 GMT 4.263999 101.183891 30,875 163 459 -1600
2019-01-14 03:28:31 GMT 4.274231 101.180916 31,000 163 460 -1536
2019-01-14 03:28:28 GMT 4.282471 101.178497 31,100 163 461 -1536
2019-01-14 03:28:25 GMT 4.286390 101.177361 31,125 163 462 -1600
2019-01-14 03:28:22 GMT 4.293559 101.175278 31,250 163 462 -1536
2019-01-14 03:28:19 GMT 4.300589 101.173241 31,300 163 463 -1536
2019-01-14 03:28:15 GMT 4.308037 101.171059 31,400 163 463 -1536
2019-01-14 03:28:12 GMT 4.314651 101.169136 31,475 163 464 -1536
2019-01-14 03:28:09 GMT 4.322096 101.166985 31,550 163 464 -1536
2019-01-14 03:28:04 GMT 4.331635 101.164207 31,675 163 465 -1408
2019-01-14 03:28:00 GMT 4.342020 101.161209 31,775 163 466 -1152
2019-01-14 03:27:53 GMT 4.352215 101.158272 31,850 163 468 -960
2019-01-14 03:27:50 GMT 4.360382 101.155914 31,925 163 468 -896
2019-01-14 03:27:47 GMT 4.365995 101.154297 31,950 163 469 -1024
2019-01-14 03:27:44 GMT 4.374607 101.151787 32,025 163 469 -1280
2019-01-14 03:27:37 GMT 4.389267 101.147537 32,175 163 469 -1408
2019-01-14 03:27:32 GMT 4.397644 101.145073 32,275 163 469 -1280
2019-01-14 03:27:29 GMT 4.404144 101.143166 32,325 163 469 -1152
2019-01-14 03:27:26 GMT 4.411244 101.141083 32,400 163 469 -1216
2019-01-14 03:27:21 GMT 4.421066 101.138245 32,475 163 468 -1216
2019-01-14 03:27:16 GMT 4.431519 101.135201 32,625 163 469 -576
2019-01-14 03:27:13 GMT 4.439687 101.132843 32,625 163 469 -576
2019-01-14 03:27:08 GMT 4.448273 101.130363 32,650 163 470 -832
2019-01-14 03:27:00 GMT 4.464220 101.125740 32,750 163 471 -1344
2019-01-14 03:26:54 GMT 4.477906 101.121811 32,900 163 472 -1280
2019-01-14 03:26:49 GMT 4.486954 101.119186 33,000 163 472 -1216
2019-01-14 03:26:44 GMT 4.499832 101.115509 33,100 163 474 -768
2019-01-14 03:26:40 GMT 4.508957 101.112862 33,150 163 476 -832
2019-01-14 03:26:33 GMT 4.522339 101.108994 33,225 163 477 -832
2019-01-14 03:26:28 GMT 4.531311 101.106430 33,275 163 479 -832
2019-01-14 03:26:25 GMT 4.539001 101.104195 33,325 163 480 -1088
2019-01-14 03:26:22 GMT 4.546711 101.101921 33,375 163 480 -1216
2019-01-14 03:26:18 GMT 4.554392 101.099648 33,450 163 479 -1344
2019-01-14 03:26:13 GMT 4.567194 101.095863 33,875 163 479 -1536
2019-01-14 03:26:08 GMT 4.576178 101.093208 33,675 163 479 -1408
2019-01-14 03:26:01 GMT 4.593263 101.088142 33,875 163 479 -1536
2019-01-14 03:25:56 GMT 4.599501 101.086296 33,925 163 479 -1536
2019-01-14 03:25:51 GMT 4.614395 101.081902 34,100 163 478 -1600
2019-01-14 03:25:46 GMT 4.622955 101.079338 34,200 163 478 -1664
2019-01-14 03:25:39 GMT 4.635727 101.075569 34,375 163 477 -1728
2019-01-14 03:25:35 GMT 4.644424 101.072990 34,475 163 476 -1728
2019-01-14 03:25:31 GMT 4.652896 101.070480 34,600 163 475 -1664
2019-01-14 03:25:25 GMT 4.667560 101.066124 34,775 163 475 -1600
2019-01-14 03:25:20 GMT 4.680450 101.062347 34,925 163 471 -1664
2019-01-14 03:25:15 GMT 4.690384 101.059418 35,050 163 473 -1600
2019-01-14 03:25:10 GMT 4.698395 101.057037 35,150 163 473 -1664
2019-01-14 03:25:02 GMT 4.715230 101.052055 35,350 163 472 -1664
2019-01-14 03:24:59 GMT 4.720490 101.050491 35,525 163 471 -1664
2019-01-14 03:24:54 GMT 4.733688 101.046570 35,575 163 470 -1664
2019-01-14 03:24:48 GMT 4.743942 101.043495 35,700 163 469 -1600
2019-01-14 03:24:42 GMT 4.756708 101.039696 35,975 163 468 -1472
2019-01-14 03:24:36 GMT 4.771092 101.035385 35,975 163 468 -1472
2019-01-14 03:24:32 GMT 4.778412 101.033203 36,100 163 467 -1536
2019-01-14 03:24:26 GMT 4.792740 101.028923 36,275 163 467 -1600
2019-01-14 03:24:22 GMT 4.800886 101.026535 36,375 163 466 -1600
2019-01-14 03:24:14 GMT 4.816635 101.021805 36,575 163 465 -1536
2019-01-14 03:24:10 GMT 4.822439 101.020088 36,975 163 465 -1344
2019-01-14 03:24:06 GMT 4.831741 101.017334 36,750 163 465 -1216
2019-01-14 03:24:01 GMT 4.844598 101.013512 36,850 163 465 -832
2019-01-14 03:23:53 GMT 4.860306 101.008812 36,950 163 466 -192
2019-01-14 03:23:49 GMT 4.866524 101.006973 36,975 163 466 -192
2019-01-14 03:23:45 GMT 4.882919 101.002106 36,975 163 466 0
2019-01-14 03:23:39 GMT 4.887892 101.000626 37,000 163 466 0
2019-01-14 03:23:34 GMT 4.898506 100.997505 36,975 163 466 0
2019-01-14 03:23:29 GMT 4.910330 100.994003 37,000 163 466 0
2019-01-14 03:23:21 GMT 4.927368 100.988937 36,975 163 466 0
2019-01-14 03:23:18 GMT 4.931946 100.987587 37,000 163 466 0
2019-01-14 03:23:12 GMT 4.943756 100.984093 37,000 163 467 0
2019-01-14 03:23:07 GMT 4.954559 100.980881 37,000 163 467 0
2019-01-14 03:23:04 GMT 4.961014 100.978973 37,000 163 467 0
2019-01-14 03:23:00 GMT 4.971826 100.975769 37,000 163 466 0
2019-01-14 03:22:57 GMT 4.976990 100.974228 37,000 163 466 0
2019-01-14 03:22:54 GMT 4.982393 100.972641 37,000 163 466 0
2019-01-14 03:22:50 GMT 4.988864 100.970749 37,000 163 466 0
2019-01-14 03:22:43 GMT 5.005280 100.965889 36,975 163 467 0
2019-01-14 03:22:40 GMT 5.009399 100.964638 36,975 163 467 0
2019-01-14 03:22:36 GMT 5.036859 100.956497 36,975 163 467 0
2019-01-14 03:22:28 GMT 5.036859 100.956497 36,975 163 467 0
2019-01-14 03:22:25 GMT 5.042267 100.954903 36,975 163 467 0
2019-01-14 03:22:17 GMT 5.060554 100.949486 36,975 163 467 0
2019-01-14 03:22:14 GMT 5.065163 100.948112 36,975 163 467 0
2019-01-14 03:22:08 GMT 5.076568 100.944702 37,000 163 467 0
2019-01-14 03:22:04 GMT 5.086990 100.941589 37,000 163 467 0
2019-01-14 03:22:00 GMT 5.092163 100.940056 37,000 163 467 0
2019-01-14 03:21:56 GMT 5.104453 100.936371 37,000 163 467 0
2019-01-14 03:21:53 GMT 5.108596 100.935135 37,000 163 467 0
2019-01-14 03:21:50 GMT 5.116745 100.932747 37,000 163 467 0
2019-01-14 03:21:47 GMT 5.120700 100.931541 37,000 163 467 0
2019-01-14 03:21:43 GMT 5.131267 100.928413 37,000 163 467 0
2019-01-14 03:21:38 GMT 5.139816 100.925858 37,000 163 467 0
2019-01-14 03:21:34 GMT 5.149562 100.922966 37,000 163 467 0
2019-01-14 03:21:30 GMT 5.158128 100.920410 36,975 163 467 0
2019-01-14 03:21:24 GMT 5.170371 100.916809 36,975 163 467 0
2019-01-14 03:21:18 GMT 5.180786 100.913704 36,975 163 467 0
2019-01-14 03:21:14 GMT 5.188293 100.911469 36,975 163 467 0
2019-01-14 03:21:11 GMT 5.201843 100.907471 36,975 163 467 0
2019-01-14 03:21:04 GMT 5.210541 100.904861 36,975 163 467 0
2019-01-14 03:21:01 GMT 5.217202 100.902885 36,975 163 467 0
2019-01-14 03:20:58 GMT 5.225327 100.900490 36,975 163 467 0
2019-01-14 03:20:52 GMT 5.237592 100.896828 36,975 163 467 0
2019-01-14 03:20:46 GMT 5.246763 100.894127 37,000 163 467 -64
2019-01-14 03:20:42 GMT 5.254486 100.891830 37,000 163 467 0
2019-01-14 03:20:39 GMT 5.263596 100.889130 37,000 163 467 0
2019-01-14 03:20:36 GMT 5.268173 100.887733 37,000 163 467 0
2019-01-14 03:20:29 GMT 5.283600 100.883171 37,000 163 467 0
2019-01-14 03:20:25 GMT 5.292343 100.880608 37,000 163 467 0
2019-01-14 03:20:21 GMT 5.299622 100.878418 37,000 163 467 0
2019-01-14 03:20:18 GMT 5.308771 100.875710 36,975 163 468 0
2019-01-14 03:20:14 GMT 5.312759 100.874557 36,975 163 468 0
2019-01-14 03:20:10 GMT 5.321712 100.871872 36,975 163 468 0
2019-01-14 03:20:06 GMT 5.329834 100.869484 36,975 163 468 0
2019-01-14 03:20:03 GMT 5.336050 100.867607 36,975 163 468 0
2019-01-14 03:19:59 GMT 5.344208 100.865196 36,975 163 468 0
2019-01-14 03:19:54 GMT 5.357325 100.861267 37,000 163 468 0
2019-01-14 03:19:46 GMT 5.373990 100.856293 36,975 163 468 0
2019-01-14 03:19:43 GMT 5.378998 100.854774 37,000 163 468 0
2019-01-14 03:19:38 GMT 5.389206 100.851746 37,000 163 469 0
2019-01-14 03:19:33 GMT 5.402387 100.847816 37,000 163 468 0
2019-01-14 03:19:25 GMT 5.418457 100.843040 37,000 163 469 0
2019-01-14 03:19:22 GMT 5.424686 100.841187 37,000 163 469 0
2019-01-14 03:19:17 GMT 5.433065 100.838722 37,000 163 469 0
2019-01-14 03:19:13 GMT 5.440374 100.836548 37,000 163 469 0
2019-01-14 03:19:06 GMT 5.456039 100.831917 37,000 163 469 0
2019-01-14 03:19:03 GMT 5.462067 100.830101 37,000 163 469 0
2019-01-14 03:19:00 GMT 5.469609 100.827881 37,000 163 469 0
2019-01-14 03:18:53 GMT 5.484650 100.823395 36,975 163 470 0
2019-01-14 03:18:49 GMT 5.491581 100.821342 36,975 163 470 0
2019-01-14 03:18:44 GMT 5.500752 100.818596 36,975 163 470 0
2019-01-14 03:18:41 GMT 5.507269 100.816704 36,975 163 470 0
2019-01-14 03:18:38 GMT 5.514159 100.814621 36,975 163 470 0
2019-01-14 03:18:34 GMT 5.523190 100.811920 36,975 163 471 0
2019-01-14 03:18:31 GMT 5.529289 100.810120 36,975 163 471 0
2019-01-14 03:18:28 GMT 5.536606 100.807938 36,975 163 471 0
2019-01-14 03:18:21 GMT 5.551941 100.803375 36,975 163 471 0
2019-01-14 03:18:17 GMT 5.558663 100.801361 37,000 163 471 0
2019-01-14 03:18:12 GMT 5.568113 100.798569 36,975 163 472 0
2019-01-14 03:18:09 GMT 5.574005 100.796814 37,000 163 471 0
2019-01-14 03:18:00 GMT 5.595840 100.790344 37,000 163 471 0
2019-01-14 03:17:51 GMT 5.618110 100.783699 36,975 163 472 0
2019-01-14 03:17:48 GMT 5.618110 100.783699 37,000 163 472 0
2019-01-14 03:17:40 GMT 5.636173 100.778343 37,000 163 472 0
2019-01-14 03:17:37 GMT 5.641433 100.776733 36,975 163 472 0
2019-01-14 03:17:28 GMT 5.663086 100.770325 36,975 163 472 0
2019-01-14 03:17:16 GMT 5.686020 100.763481 36,975 163 472 0
2019-01-14 03:17:06 GMT 5.707677 100.757034 36,975 163 472 0
2019-01-14 03:17:03 GMT 5.715866 100.754593 36,975 163 472 0
2019-01-14 03:16:56 GMT 5.730999 100.750076 36,975 163 472 0
2019-01-14 03:16:50 GMT 5.741334 100.746994 36,975 163 472 0
2019-01-14 03:16:45 GMT 5.752693 100.743637 37,000 163 472 0
2019-01-14 03:16:40 GMT 5.762329 100.740746 37,000 163 471 0
2019-01-14 03:16:35 GMT 5.774945 100.737007 37,000 163 471 0
2019-01-14 03:16:24 GMT 5.796753 100.730476 36,975 163 471 -64
2019-01-14 03:16:13 GMT 5.819000 100.723869 36,975 163 471 0
2019-01-14 03:16:03 GMT 5.842073 100.717018 37,000 163 471 0
2019-01-14 03:15:51 GMT 5.864744 100.710251 37,000 163 471 0
2019-01-14 03:15:40 GMT 5.886763 100.703712 37,000 163 470 0
2019-01-14 03:15:31 GMT 5.908539 100.697243 37,000 163 470 0
2019-01-14 03:15:19 GMT 5.931593 100.690361 37,000 163 469 0
2019-01-14 03:15:09 GMT 5.955614 100.683159 36,975 163 470 0
2019-01-14 03:14:58 GMT 5.977158 100.676758 37,000 163 470 0
2019-01-14 03:14:47 GMT 5.998349 100.670471 36,975 163 470 0
2019-01-14 03:14:38 GMT 6.019089 100.664284 37,000 163 471 0
2019-01-14 03:14:26 GMT 6.046112 100.656219 37,000 163 471 0
2019-01-14 03:14:16 GMT 6.064593 100.650726 37,000 163 471 0
2019-01-14 03:14:06 GMT 6.086426 100.644264 36,975 163 471 0
2019-01-14 03:13:54 GMT 6.109935 100.637276 37,000 163 471 0
2019-01-14 03:13:45 GMT 6.131332 100.630951 37,000 163 471 0
2019-01-14 03:13:34 GMT 6.153414 100.624397 37,000 163 471 0
2019-01-14 03:13:31 GMT 6.161179 100.622101 36,975 163 471 0
2019-01-14 03:13:23 GMT 6.174179 100.618195 36,975 163 471 0
2019-01-14 03:13:13 GMT 6.206543 100.608604 37,000 163 471 0
2019-01-14 03:13:02 GMT 6.220403 100.604462 37,000 163 472 0
2019-01-14 03:12:52 GMT 6.243074 100.597641 36,975 163 472 0
2019-01-14 03:12:39 GMT 6.271843 100.589020 36,975 163 472 0
2019-01-14 03:12:30 GMT 6.293257 100.582581 37,000 163 472 0
2019-01-14 03:12:17 GMT 6.314896 100.576065 37,000 163 472 0
2019-01-14 03:12:08 GMT 6.336960 100.569405 37,000 163 472 0
2019-01-14 03:11:57 GMT 6.358154 100.563072 37,000 163 472 0
2019-01-14 03:11:48 GMT 6.377106 100.557396 37,000 163 472 0
2019-01-14 03:11:35 GMT 6.403819 100.549477 37,000 163 473 0
2019-01-14 03:11:25 GMT 6.422579 100.543983 37,000 168 473 64
2019-01-14 03:11:16 GMT 6.443802 100.537613 36,975 164 473 64
2019-01-14 03:11:13 GMT 6.450806 100.535706 37,000 168 473 64
2019-01-14 03:11:03 GMT 6.472204 100.530777 36,975 170 473 64
2019-01-14 03:10:53 GMT 6.495483 100.527092 37,000 173 474 64
2019-01-14 03:10:43 GMT 6.522015 100.524902 37,000 178 475 128
2019-01-14 03:10:33 GMT 6.535701 100.524757 36,975 182 476 64
2019-01-14 03:10:30 GMT 6.543228 100.524902 36,975 183 476 64
2019-01-14 03:10:21 GMT 6.564843 100.525894 37,000 183 475 0
2019-01-14 03:10:12 GMT 6.582916 100.526810 37,000 183 475 0
2019-01-14 03:10:09 GMT 6.589966 100.527138 37,000 183 475 0
2019-01-14 03:10:02 GMT 6.605804 100.527931 36,975 183 474 0
2019-01-14 03:09:58 GMT 6.612213 100.528252 36,975 183 474 0
2019-01-14 03:09:48 GMT 6.638396 100.529541 36,975 183 474 0
2019-01-14 03:09:37 GMT 6.660416 100.530624 37,000 183 474 0
2019-01-14 03:09:29 GMT 6.676254 100.531418 37,000 183 474 0
2019-01-14 03:09:26 GMT 6.682853 100.531723 37,000 183 474 0
2019-01-14 03:09:16 GMT 6.707014 100.532906 37,000 183 473 0
2019-01-14 03:09:09 GMT 6.722397 100.533653 37,000 183 473 0
2019-01-14 03:09:06 GMT 6.731186 100.534119 36,975 183 473 0
2019-01-14 03:08:57 GMT 6.746567 100.534866 36,975 183 474 0
2019-01-14 03:08:54 GMT 6.755814 100.535332 36,975 183 474 0
2019-01-14 03:08:48 GMT 6.769440 100.535980 37,000 183 474 0
2019-01-14 03:08:43 GMT 6.777603 100.536400 37,000 183 474 0
2019-01-14 03:08:37 GMT 6.792996 100.537170 36,975 183 474 0
2019-01-14 03:08:33 GMT 6.802460 100.537613 36,975 183 474 0
2019-01-14 03:08:24 GMT 6.820042 100.538445 36,975 183 473 0
2019-01-14 03:08:16 GMT 6.840246 100.539436 36,975 183 473 0
2019-01-14 03:08:13 GMT 6.842651 100.539566 36,975 183 473 0
2019-01-14 03:08:10 GMT 6.851028 100.539940 37,000 183 473 0
2019-01-14 03:08:01 GMT 6.873413 100.541054 36,975 183 473 0
2019-01-14 03:07:52 GMT 6.888977 100.541801 37,000 183 473 0
2019-01-14 03:07:47 GMT 6.904581 100.542564 37,000 183 473 0
2019-01-14 03:07:41 GMT 6.913566 100.542992 37,000 183 473 0
2019-01-14 03:07:30 GMT 6.937042 100.544174 36,975 183 473 0
2019-01-14 03:07:23 GMT 6.955882 100.545120 37,000 183 473 0
2019-01-14 03:07:20 GMT 6.959839 100.545341 36,975 183 473 0
2019-01-14 03:07:15 GMT 6.975449 100.546082 36,975 183 473 0
2019-01-14 03:07:09 GMT 6.984650 100.546547 37,000 183 473 0
2019-01-14 03:07:05 GMT 6.993869 100.546967 37,000 183 473 0
2019-01-14 03:07:01 GMT 7.001770 100.547386 37,000 183 473 0
2019-01-14 03:06:58 GMT 7.007904 100.547668 36,975 183 473 0
2019-01-14 03:06:51 GMT 7.031390 100.548820 37,000 183 473 0
2019-01-14 03:06:39 GMT 7.049592 100.549667 37,000 183 473 0
2019-01-14 03:06:35 GMT 7.058157 100.550095 36,975 183 473 0
2019-01-14 03:06:24 GMT 7.084717 100.551392 36,975 183 473 0
2019-01-14 03:06:15 GMT 7.107968 100.552559 37,000 183 473 0
2019-01-14 03:06:02 GMT 7.132315 100.553741 36,975 183 473 0
2019-01-14 03:05:54 GMT 7.148562 100.554543 36,975 183 473 0
2019-01-14 03:05:43 GMT 7.172257 100.555679 37,000 183 473 0
2019-01-14 03:05:33 GMT 7.195312 100.556839 36,975 183 473 0
2019-01-14 03:05:22 GMT 7.234634 100.558746 36,975 183 473 0
2019-01-14 03:05:10 GMT 7.247772 100.559395 36,975 183 473 0
2019-01-14 03:04:58 GMT 7.274139 100.560699 37,000 183 473 0
2019-01-14 03:04:50 GMT 7.289336 100.561462 37,000 183 473 0
2019-01-14 03:04:42 GMT 7.308426 100.562378 36,975 183 473 0
2019-01-14 03:04:39 GMT 7.312612 100.562599 36,975 183 473 0
2019-01-14 03:04:28 GMT 7.337173 100.563820 37,000 183 473 0
2019-01-14 03:04:17 GMT 7.360700 100.564964 36,975 183 473 0
2019-01-14 03:04:05 GMT 7.391235 100.566429 37,000 183 473 0
2019-01-14 03:03:56 GMT 7.412292 100.567497 37,000 183 473 0
2019-01-14 03:03:46 GMT 7.429871 100.568336 37,000 183 474 0
2019-01-14 03:03:42 GMT 7.438477 100.568756 36,975 183 474 0
2019-01-14 03:03:37 GMT 7.448593 100.569267 36,975 183 474 0
2019-01-14 03:03:33 GMT 7.460043 100.569839 37,000 183 474 0
2019-01-14 03:03:27 GMT 7.473217 100.570457 36,975 183 474 0
2019-01-14 03:03:23 GMT 7.482900 100.570930 37,000 183 474 0
2019-01-14 03:03:13 GMT 7.506271 100.572105 36,975 183 474 0
2019-01-14 03:03:03 GMT 7.524307 100.572990 37,000 183 474 0
2019-01-14 03:02:59 GMT 7.532684 100.573410 37,000 183 474 0
2019-01-14 03:02:56 GMT 7.541230 100.573822 37,000 183 474 0
2019-01-14 03:02:52 GMT 7.547607 100.574150 36,975 183 474 0
2019-01-14 03:02:41 GMT 7.572047 100.575333 37,000 183 474 0
2019-01-14 03:02:30 GMT 7.596022 100.576515 36,975 183 474 0
2019-01-14 03:02:20 GMT 7.618698 100.577599 37,000 183 474 0
2019-01-14 03:02:09 GMT 7.646205 100.578934 36,975 183 474 0
2019-01-14 03:02:02 GMT 7.658066 100.579552 37,000 183 474 0
2019-01-14 03:01:59 GMT 7.665571 100.579926 37,000 183 474 0
2019-01-14 03:01:52 GMT 7.680700 100.580688 37,000 183 474 0
2019-01-14 03:01:48 GMT 7.689312 100.581116 36,975 183 474 0
2019-01-14 03:01:42 GMT 7.704666 100.581879 36,975 183 474 0
2019-01-14 03:01:37 GMT 7.713501 100.582298 37,000 183 474 0
2019-01-14 03:01:31 GMT 7.727325 100.583000 37,000 183 474 0
2019-01-14 03:01:26 GMT 7.736796 100.583435 36,975 183 474 0
2019-01-14 03:01:20 GMT 7.752640 100.584213 36,975 183 474 0
2019-01-14 03:01:16 GMT 7.759460 100.584534 37,000 183 474 0
2019-01-14 03:01:08 GMT 7.777296 100.585419 37,000 183 474 0
2019-01-14 03:01:05 GMT 7.783676 100.585747 37,000 183 474 0
2019-01-14 03:00:54 GMT 7.808300 100.586937 37,000 183 474 0
2019-01-14 03:00:47 GMT 7.825653 100.587791 36,975 183 473 0
2019-01-14 03:00:44 GMT 7.829819 100.587982 36,975 183 473 0
2019-01-14 03:00:37 GMT 7.844564 100.588737 37,000 183 473 0
2019-01-14 03:00:32 GMT 7.855318 100.589256 36,975 183 473 0
2019-01-14 03:00:28 GMT 7.866956 100.589828 37,000 183 473 0
2019-01-14 03:00:22 GMT 7.877289 100.590355 37,000 183 473 0
2019-01-14 03:00:16 GMT 7.890701 100.591003 37,000 183 473 0
2019-01-14 03:00:11 GMT 7.901642 100.591568 36,975 183 473 0
2019-01-14 03:00:05 GMT 7.915044 100.592239 37,000 183 472 0
2019-01-14 03:00:00 GMT 7.926031 100.592766 37,000 183 472 0
2019-01-14 02:59:56 GMT 7.938041 100.593330 36,975 183 472 0
2019-01-14 02:59:50 GMT 7.947491 100.593803 36,975 183 472 0
2019-01-14 02:59:44 GMT 7.960665 100.594467 36,975 183 472 0
2019-01-14 02:59:39 GMT 7.971588 100.595009 37,000 183 472 0
2019-01-14 02:59:34 GMT 7.984085 100.595612 36,975 183 472 0
2019-01-14 02:59:28 GMT 7.996557 100.596268 36,975 183 472 0
2019-01-14 02:59:18 GMT 8.019088 100.597359 37,000 183 471 0
2019-01-14 02:59:07 GMT 8.042953 100.598503 37,000 183 471 0
2019-01-14 02:58:57 GMT 8.064835 100.599571 36,975 183 471 0
2019-01-14 02:58:46 GMT 8.089569 100.600761 36,975 183 471 0
2019-01-14 02:58:36 GMT 8.111448 100.601852 36,975 183 471 0
2019-01-14 02:58:25 GMT 8.135050 100.603035 37,000 183 471 0
2019-01-14 02:58:14 GMT 8.159317 100.604225 37,000 183 471 0
2019-01-14 02:58:03 GMT 8.182254 100.605354 37,000 183 471 0
2019-01-14 02:57:59 GMT 8.191006 100.605782 36,975 183 470 0
2019-01-14 02:57:52 GMT 8.206284 100.606552 36,975 183 470 0
2019-01-14 02:57:48 GMT 8.214794 100.606972 36,975 183 470 0
2019-01-14 02:57:38 GMT 8.236450 100.608047 36,975 183 470 0
2019-01-14 02:57:28 GMT 8.259996 100.609192 36,975 183 470 0
2019-01-14 02:57:18 GMT 8.284012 100.610374 37,000 183 470 0
2019-01-14 02:57:07 GMT 8.305206 100.611397 37,000 183 470 0
2019-01-14 02:56:57 GMT 8.328754 100.612556 37,000 183 470 0
2019-01-14 02:56:46 GMT 8.351704 100.613739 37,000 183 471 0
2019-01-14 02:56:36 GMT 8.372467 100.614784 36,975 183 471 0
2019-01-14 02:56:22 GMT 8.403946 100.616333 36,975 183 471 0
2019-01-14 02:56:17 GMT 8.415070 100.616890 37,000 183 471 0
2019-01-14 02:56:05 GMT 8.440014 100.618141 37,000 183 471 0
We lost coverage of the aircraft here for a total of 20 minutes
2019-01-14 02:36:29 GMT 10.976599 100.744194 37,000 183 458 0
2019-01-14 02:34:30 GMT 11.231379 100.757111 37,000 183 461 0
2019-01-14 02:34:17 GMT 11.258938 100.758507 36,975 183 461 0
2019-01-14 02:34:12 GMT 11.270050 100.759117 37,000 183 461 0
2019-01-14 02:33:59 GMT 11.297653 100.760536 36,975 183 461 0
2019-01-14 02:33:49 GMT 11.319717 100.761681 36,975 183 461 0
2019-01-14 02:33:39 GMT 11.340684 100.762794 37,000 183 462 0
2019-01-14 02:33:11 GMT 11.399643 100.765938 36,975 184 462 0
2019-01-14 02:33:06 GMT 11.411629 100.766556 36,975 183 462 0
2019-01-14 02:32:55 GMT 11.434387 100.767738 36,975 183 462 0
2019-01-14 02:32:44 GMT 11.458832 100.769020 37,000 183 462 0
2019-01-14 02:32:28 GMT 11.489511 100.770508 37,000 183 462 0
2019-01-14 02:32:22 GMT 11.503244 100.771133 36,975 183 462 0
2019-01-14 02:32:11 GMT 11.529639 100.772385 37,000 183 462 0
2019-01-14 02:32:01 GMT 11.551346 100.773323 37,000 183 463 64
2019-01-14 02:31:50 GMT 11.573445 100.774216 36,975 183 463 0
2019-01-14 02:31:39 GMT 11.598587 100.775169 37,000 183 463 0
2019-01-14 02:31:27 GMT 11.623718 100.776123 36,975 183 463 0
2019-01-14 02:31:15 GMT 11.648666 100.777069 36,975 183 463 0
2019-01-14 02:31:05 GMT 11.670413 100.778023 36,975 183 463 0
2019-01-14 02:30:54 GMT 11.694443 100.779526 36,975 186 463 0
2019-01-14 02:30:41 GMT 11.721680 100.782181 36,975 186 464 0
2019-01-14 02:30:33 GMT 11.739497 100.783897 36,975 186 464 0
2019-01-14 02:30:20 GMT 11.768005 100.786728 36,975 186 464 64
2019-01-14 02:30:11 GMT 11.787771 100.788673 36,975 186 465 -64
2019-01-14 02:30:00 GMT 11.810349 100.790848 37,000 186 467 0
2019-01-14 02:29:49 GMT 11.834747 100.793213 37,000 186 469 192
2019-01-14 02:29:38 GMT 11.857956 100.795486 36,925 186 470 576
2019-01-14 02:29:27 GMT 11.882034 100.797806 36,825 186 469 640
2019-01-14 02:29:16 GMT 11.906526 100.800232 36,700 186 467 768
2019-01-14 02:29:04 GMT 11.930920 100.802551 36,550 186 465 896
2019-01-14 02:28:53 GMT 11.953445 100.804672 36,375 186 463 1088
2019-01-14 02:28:43 GMT 11.976379 100.806808 36,175 186 462 1408
2019-01-14 02:28:32 GMT 12.000981 100.808960 35,900 185 461 1920
2019-01-14 02:28:21 GMT 12.023605 100.810837 35,575 185 462 2048
2019-01-14 02:28:10 GMT 12.047347 100.812622 35,200 184 463 2176
2019-01-14 02:27:58 GMT 12.070129 100.814148 34,825 184 464 2240
2019-01-14 02:27:48 GMT 12.094025 100.815613 34,425 184 465 2368
2019-01-14 02:27:37 GMT 12.118292 100.817055 33,975 182 468 3072
2019-01-14 02:27:28 GMT 12.135498 100.817268 33,600 178 472 3264
2019-01-14 02:27:25 GMT 12.144287 100.817131 33,400 178 474 3392
2019-01-14 02:27:18 GMT 12.158793 100.816811 33,075 178 477 3392
2019-01-14 02:27:15 GMT 12.166986 100.816666 32,875 178 479 3456
2019-01-14 02:27:04 GMT 12.191333 100.816139 32,275 178 485 3584
2019-01-14 02:26:53 GMT 12.217300 100.815659 31,625 178 490 3456
2019-01-14 02:26:45 GMT 12.232811 100.815315 31,275 178 493 3264
2019-01-14 02:26:42 GMT 12.242447 100.815125 31,050 178 495 3200
2019-01-14 02:26:30 GMT 12.268470 100.814400 30,525 178 498 2496
2019-01-14 02:26:20 GMT 12.293189 100.813728 30,150 178 498 1984
2019-01-14 02:26:11 GMT 12.309622 100.813248 29,950 178 497 1920
2019-01-14 02:26:08 GMT 12.319519 100.812965 29,800 178 496 1920
2019-01-14 02:25:59 GMT 12.337926 100.812424 29,575 178 495 1984
2019-01-14 02:25:55 GMT 12.347097 100.812233 29,450 178 494 1920
2019-01-14 02:25:49 GMT 12.361084 100.811920 29,275 178 492 1600
2019-01-14 02:25:45 GMT 12.372025 100.811684 29,150 178 491 1472
2019-01-14 02:25:36 GMT 12.393649 100.811218 28,925 178 487 1728
2019-01-14 02:25:26 GMT 12.413480 100.810883 28,675 179 484 1984
2019-01-14 02:25:23 GMT 12.419815 100.810783 28,600 179 484 1984
2019-01-14 02:25:16 GMT 12.434830 100.810547 28,375 179 483 2112
2019-01-14 02:25:12 GMT 12.444018 100.810402 28,250 179 482 2176
2019-01-14 02:25:05 GMT 12.459893 100.810158 28,000 179 481 2112
2019-01-14 02:25:01 GMT 12.469250 100.810020 27,850 179 480 2112
2019-01-14 02:24:54 GMT 12.484426 100.809776 27,625 179 479 2304
2019-01-14 02:24:50 GMT 12.493515 100.809692 27,475 179 478 2368
2019-01-14 02:24:43 GMT 12.508586 100.809532 27,225 179 477 2432
2019-01-14 02:24:39 GMT 12.517059 100.809441 27,075 179 477 2432
2019-01-14 02:24:32 GMT 12.533166 100.809242 26,800 179 476 2432
2019-01-14 02:24:28 GMT 12.541592 100.809097 26,675 179 476 2432
2019-01-14 02:24:22 GMT 12.556582 100.808861 26,400 179 475 2304
2019-01-14 02:24:17 GMT 12.566071 100.808746 26,250 179 474 2176
2019-01-14 02:24:11 GMT 12.580124 100.808556 26,050 179 472 1984
2019-01-14 02:24:06 GMT 12.592850 100.808464 25,850 179 471 2112
2019-01-14 02:23:59 GMT 12.605072 100.808418 25,650 181 469 2560
2019-01-14 02:23:55 GMT 12.613815 100.808464 25,500 181 469 2624
2019-01-14 02:23:48 GMT 12.628830 100.808510 25,225 181 468 2560
2019-01-14 02:23:44 GMT 12.638607 100.808525 25,050 180 468 2496
2019-01-14 02:23:38 GMT 12.652496 100.808510 24,800 179 467 2496
2019-01-14 02:23:33 GMT 12.664856 100.808418 24,575 179 466 2624
2019-01-14 02:23:26 GMT 12.677199 100.808281 24,325 179 465 2752
2019-01-14 02:23:22 GMT 12.687347 100.808136 24,125 179 465 2880
2019-01-14 02:23:15 GMT 12.701157 100.807892 23,850 179 465 2816
2019-01-14 02:23:10 GMT 12.711973 100.807701 23,625 179 464 2688
2019-01-14 02:23:05 GMT 12.723175 100.807564 23,400 179 464 2624
2019-01-14 02:22:59 GMT 12.734985 100.807419 23,175 179 462 2560
2019-01-14 02:22:54 GMT 12.745926 100.807281 22,975 179 461 2368
2019-01-14 02:22:48 GMT 12.758991 100.807076 22,750 179 459 2432
2019-01-14 02:22:43 GMT 12.769684 100.806900 22,550 177 457 2624
2019-01-14 02:22:37 GMT 12.782410 100.806381 22,325 176 456 2816
2019-01-14 02:22:32 GMT 12.793213 100.805618 22,100 173 455 2816
2019-01-14 02:22:27 GMT 12.806900 100.803917 21,800 170 454 2816
2019-01-14 02:22:21 GMT 12.816055 100.802307 21,625 169 455 2816
2019-01-14 02:22:15 GMT 12.829971 100.799606 21,325 168 453 2432
2019-01-14 02:22:10 GMT 12.839035 100.797806 21,175 169 452 2304
2019-01-14 02:22:03 GMT 12.853445 100.794983 20,925 169 449 2240
2019-01-14 02:21:59 GMT 12.862015 100.793259 20,775 169 446 2368
2019-01-14 02:21:52 GMT 12.875464 100.790649 20,500 169 445 2560
2019-01-14 02:21:48 GMT 12.883192 100.789154 20,350 169 442 2688
2019-01-14 02:21:41 GMT 12.897949 100.786263 20,050 169 441 2688
2019-01-14 02:21:38 GMT 12.905165 100.784866 19,900 169 439 2624
2019-01-14 02:21:31 GMT 12.919829 100.781975 19,600 169 437 2560
2019-01-14 02:21:27 GMT 12.926812 100.780624 19,450 169 436 2560
2019-01-14 02:21:20 GMT 12.943909 100.777397 19,125 169 432 2688
2019-01-14 02:21:16 GMT 12.948039 100.776627 19,025 169 432 2688
2019-01-14 02:21:08 GMT 12.966202 100.773323 18,625 169 429 2944
2019-01-14 02:20:57 GMT 12.987981 100.769394 18,150 169 426 2240
2019-01-14 02:20:54 GMT 12.991104 100.768829 18,100 169 425 2048
2019-01-14 02:20:46 GMT 13.008362 100.765556 17,800 169 419 2368
2019-01-14 02:20:33 GMT 13.031973 100.761063 17,300 169 414 2752
2019-01-14 02:20:22 GMT 13.052719 100.757133 16,925 169 409 2688
2019-01-14 02:20:11 GMT 13.073591 100.753258 16,300 169 406 3648
2019-01-14 02:20:03 GMT 13.090714 100.750122 15,775 169 406 3456
2019-01-14 02:20:00 GMT 13.093506 100.749603 15,700 169 405 3392
2019-01-14 02:19:51 GMT 13.112043 100.746025 15,200 169 405 3072
2019-01-14 02:19:48 GMT 13.114792 100.745483 15,125 169 404 3008
2019-01-14 02:19:41 GMT 13.131363 100.742355 14,700 169 400 3008
2019-01-14 02:19:27 GMT 13.155104 100.738121 14,075 170 396 3328
2019-01-14 02:19:16 GMT 13.174667 100.734779 13,475 170 393 3456
2019-01-14 02:19:08 GMT 13.191228 100.732056 12,975 170 390 3456
2019-01-14 02:18:54 GMT 13.213248 100.728485 12,350 170 386 2688
2019-01-14 02:18:43 GMT 13.232803 100.725311 12,000 170 378 1728
2019-01-14 02:18:32 GMT 13.251297 100.722374 11,675 171 365 1536
2019-01-14 02:18:24 GMT 13.266736 100.719910 11,450 170 354 1408
2019-01-14 02:18:13 GMT 13.284256 100.717072 11,175 170 340 1344
2019-01-14 02:18:10 GMT 13.287079 100.716583 11,150 170 338 1280
2019-01-14 02:18:02 GMT 13.301371 100.714172 10,950 170 327 1216
2019-01-14 02:17:59 GMT 13.304350 100.713646 10,900 170 324 1152
2019-01-14 02:17:51 GMT 13.320190 100.710960 10,675 170 309 1216
2019-01-14 02:17:38 GMT 13.335388 100.708359 10,500 170 300 1920
2019-01-14 02:17:32 GMT 13.343674 100.706932 10,200 170 297 3008
2019-01-14 02:17:29 GMT 13.348297 100.706131 10,025 170 296 3008
2019-01-14 02:17:16 GMT 13.365008 100.703094 9,450 169 295 3200
2019-01-14 02:17:11 GMT 13.371758 100.701843 9,200 169 295 3392
2019-01-14 02:17:05 GMT 13.380020 100.700302 8,925 169 296 3200
2019-01-14 02:17:00 GMT 13.386934 100.699043 8,625 169 296 2944
2019-01-14 02:16:56 GMT 13.393021 100.697937 8,425 169 295 2880
2019-01-14 02:16:53 GMT 13.396133 100.697372 8,325 169 295 2880
2019-01-14 02:16:49 GMT 13.401365 100.696442 8,150 170 294 2688
2019-01-14 02:16:45 GMT 13.407852 100.695282 7,950 170 292 2048
2019-01-14 02:16:32 GMT 13.424083 100.693069 7,600 178 291 1408
2019-01-14 02:16:23 GMT 13.437722 100.693604 7,400 191 292 1024
2019-01-14 02:16:18 GMT 13.443466 100.694763 7,300 194 293 1216
2019-01-14 02:16:12 GMT 13.452712 100.697121 7,175 195 292 1280
2019-01-14 02:16:08 GMT 13.457062 100.698219 7,100 194 293 1344
2019-01-14 02:15:59 GMT 13.467516 100.700783 6,925 192 292 1408
2019-01-14 02:15:49 GMT 13.481781 100.703430 6,700 189 289 1472
2019-01-14 02:15:46 GMT 13.485811 100.704056 6,625 186 287 1664
2019-01-14 02:15:37 GMT 13.496564 100.705261 6,425 186 287 1664
2019-01-14 02:15:27 GMT 13.510623 100.706558 6,125 186 286 2304
2019-01-14 02:15:15 GMT 13.525753 100.708008 5,625 186 282 2880
2019-01-14 02:15:05 GMT 13.539276 100.709305 5,150 186 278 2880
2019-01-14 02:14:53 GMT 13.555984 100.711006 4,575 186 275 2624
2019-01-14 02:14:43 GMT 13.567836 100.712296 4,250 187 266 1344
2019-01-14 02:14:32 GMT 13.580154 100.713707 4,025 187 251 960
2019-01-14 02:14:21 GMT 13.593063 100.715408 3,850 189 234 960
2019-01-14 02:14:10 GMT 13.604752 100.717407 3,625 193 216 704
2019-01-14 02:13:58 GMT 13.615814 100.720146 3,500 194 198 896
2019-01-14 02:13:47 GMT 13.625561 100.722656 3,250 195 186 2240
2019-01-14 02:13:37 GMT 13.633621 100.724739 2,900 195 185 2240
2019-01-14 02:13:27 GMT 13.642692 100.727135 2,500 195 182 2304
2019-01-14 02:13:16 GMT 13.651978 100.729668 2,100 196 180 2176
2019-01-14 02:13:04 GMT 13.660754 100.732002 1,650 195 178 3264

Making use of Plane Finder data

You are free to use the raw flight data, aircraft information and images provided in this report for your own purposes provided the data is correctly attributed to Plane Finder. We ask that you please credit Plane Finder and link to planefinder.net in close proximity to the content.

Optionally one of the following logos (no smaller then 150x24px) can be used and must link to planefinder.net

Embedding the Plane Finder map

You are welcome to embed the Plane Finder playback map on your website to offer visitors a more interactive experience. We suggest using the following HTML code:

<iframe src="//planefinder.net/data/report/TG415-HS-TKO-7700-squawk-2019-01-14/map" width="800" height="600" seamless="seamless"></iframe>

Where our data comes from

Plane Finder has a global network of data feeds and antenna radars that receive data broadcast directly from aircraft. The primary technologies used are ADS-B and MLAT. We also show feeds from the FAA and a FLARM glider feed.

Click here to find out more about the Plane Finder network.

How we collect our data